createdAt,value
2022-11-21T00:01:37.332Z,4.28
2022-11-21T00:04:05.057Z,4.13
2022-11-21T00:06:32.814Z,3.72
2022-11-21T00:09:00.751Z,3.78
2022-11-21T00:11:28.580Z,3.70
2022-11-21T00:13:56.400Z,4.00
2022-11-21T00:16:24.261Z,4.10
2022-11-21T00:18:52.232Z,3.97
2022-11-21T00:21:20.992Z,4.32
2022-11-21T00:23:49.286Z,4.13
2022-11-21T00:26:17.787Z,5.03
2022-11-21T00:28:46.095Z,4.47
2022-11-21T00:31:25.290Z,5.18
2022-11-21T00:33:53.089Z,4.57
2022-11-21T00:36:20.765Z,3.90
2022-11-21T00:38:48.852Z,3.60
2022-11-21T00:41:16.668Z,4.13
2022-11-21T00:43:44.484Z,3.92
2022-11-21T00:46:12.398Z,4.55
2022-11-21T00:48:40.321Z,5.07
2022-11-21T00:51:07.989Z,4.97
2022-11-21T00:53:35.970Z,4.65
2022-11-21T00:56:03.993Z,4.50
2022-11-21T00:58:31.830Z,4.68
2022-11-21T01:01:11.089Z,4.85
2022-11-21T01:03:39.407Z,4.15
2022-11-21T01:06:10.491Z,4.57
2022-11-21T01:08:40.642Z,4.55
2022-11-21T01:11:14.131Z,4.35
2022-11-21T01:13:42.580Z,4.50
2022-11-21T01:16:16.138Z,4.97
2022-11-21T01:18:44.474Z,3.67
2022-11-21T01:21:21.504Z,4.18
2022-11-21T01:23:49.637Z,4.47
2022-11-21T01:26:19.940Z,5.10
2022-11-21T01:28:47.971Z,4.57
2022-11-21T01:31:21.167Z,4.50
2022-11-21T01:33:49.464Z,4.28
2022-11-21T01:36:25.838Z,4.20
2022-11-21T01:38:55.598Z,4.70
2022-11-21T01:41:30.250Z,4.72
2022-11-21T01:43:59.113Z,5.03
2022-11-21T01:46:27.533Z,4.90
2022-11-21T01:49:05.457Z,5.57
2022-11-21T01:51:55.677Z,4.53
2022-11-21T01:54:37.887Z,4.00
2022-11-21T01:57:09.968Z,4.43
2022-11-21T01:59:46.651Z,4.25
2022-11-21T02:02:16.418Z,3.58
2022-11-21T02:04:44.810Z,4.80
2022-11-21T02:07:14.163Z,4.90
2022-11-21T02:09:43.972Z,4.20
2022-11-21T02:12:26.957Z,4.70
2022-11-21T02:14:55.855Z,4.10
2022-11-21T02:17:23.706Z,4.47
2022-11-21T02:19:58.208Z,4.68
2022-11-21T02:22:41.235Z,4.25
2022-11-21T02:25:20.811Z,4.70
2022-11-21T02:27:50.793Z,5.15
2022-11-21T02:30:19.111Z,5.60
2022-11-21T02:32:47.545Z,4.75
2022-11-21T02:35:16.928Z,4.22
2022-11-21T02:37:47.765Z,4.65
2022-11-21T02:40:22.440Z,4.88
2022-11-21T02:43:03.071Z,5.07
2022-11-21T02:49:51.642Z,4.30
2022-11-21T02:52:19.389Z,4.90
2022-11-21T02:54:47.296Z,4.55
2022-11-21T02:57:15.220Z,4.90
2022-11-21T02:59:43.005Z,4.35
2022-11-21T03:02:10.846Z,4.57
2022-11-21T03:04:38.825Z,4.28
2022-11-21T03:07:06.938Z,5.03
2022-11-21T03:09:35.024Z,5.30
2022-11-21T03:12:07.445Z,4.78
2022-11-21T03:14:38.617Z,5.88
2022-11-21T03:17:06.352Z,4.63
2022-11-21T03:19:34.382Z,4.53
2022-11-21T03:22:02.934Z,4.25
2022-11-21T03:24:30.972Z,4.93
2022-11-21T03:27:00.381Z,4.93
2022-11-21T03:29:28.427Z,4.93
2022-11-21T03:31:56.200Z,5.63
2022-11-21T03:34:25.575Z,4.40
2022-11-21T03:36:53.544Z,4.10
2022-11-21T03:39:21.312Z,4.75
2022-11-21T03:41:49.277Z,4.63
2022-11-21T03:44:17.604Z,4.80
2022-11-21T03:46:46.912Z,5.30
2022-11-21T03:49:17.041Z,4.80
2022-11-21T03:51:45.557Z,4.53
2022-11-21T03:54:14.542Z,4.13
2022-11-21T03:56:42.378Z,4.47
2022-11-21T03:59:10.175Z,4.03
2022-11-21T04:01:37.992Z,4.72
2022-11-21T04:04:06.277Z,4.78
2022-11-21T04:06:34.077Z,4.65
2022-11-21T04:09:02.212Z,4.57
2022-11-21T04:11:29.968Z,5.07
2022-11-21T04:13:57.782Z,5.28
2022-11-21T04:16:25.619Z,5.22
2022-11-21T04:18:53.507Z,6.03
2022-11-21T04:21:21.449Z,5.25
2022-11-21T04:23:49.420Z,4.78
2022-11-21T04:26:17.218Z,5.55
2022-11-21T04:28:45.063Z,4.97
2022-11-21T04:31:12.861Z,4.18
2022-11-21T04:33:40.660Z,4.70
2022-11-21T04:36:09.416Z,4.57
2022-11-21T04:38:37.546Z,4.03
2022-11-21T04:41:05.394Z,3.75
2022-11-21T04:43:33.110Z,3.13
2022-11-21T04:46:00.880Z,3.53
2022-11-21T04:48:28.799Z,2.70
2022-11-21T04:50:56.873Z,2.90
2022-11-21T04:53:24.845Z,2.95
2022-11-21T04:55:52.733Z,3.67
2022-11-21T04:58:20.598Z,3.35
2022-11-21T05:00:48.869Z,3.25
2022-11-21T05:03:17.005Z,4.20
2022-11-21T05:05:44.826Z,3.50
2022-11-21T05:08:12.675Z,3.20
2022-11-21T05:10:59.123Z,4.45
2022-11-21T05:13:27.188Z,3.95
2022-11-21T05:15:59.131Z,4.82
2022-11-21T05:18:27.188Z,4.28
2022-11-21T05:20:55.036Z,4.00
2022-11-21T05:23:22.999Z,3.88
2022-11-21T05:25:50.791Z,4.85
2022-11-21T05:28:18.803Z,4.07
2022-11-21T05:30:46.671Z,4.32
2022-11-21T05:33:14.642Z,4.80
2022-11-21T05:35:43.662Z,4.72
2022-11-21T05:38:12.101Z,5.07
2022-11-21T05:40:43.135Z,4.57
2022-11-21T05:43:30.798Z,5.47
2022-11-21T05:45:58.619Z,4.30
2022-11-21T05:48:26.453Z,4.50
2022-11-21T05:50:54.149Z,4.57
2022-11-21T05:53:22.101Z,4.38
2022-11-21T05:55:49.952Z,4.82
2022-11-21T05:58:17.695Z,5.32
2022-11-21T06:00:45.698Z,4.47
2022-11-21T06:03:28.919Z,5.25
2022-11-21T06:06:08.478Z,4.88
2022-11-21T06:08:42.528Z,5.78
2022-11-21T06:11:13.095Z,5.07
2022-11-21T06:13:41.520Z,4.53
2022-11-21T06:16:14.722Z,4.47
2022-11-21T06:18:48.000Z,5.22
2022-11-21T06:21:17.081Z,4.40
2022-11-21T06:23:45.604Z,4.30
2022-11-21T06:26:18.558Z,4.63
2022-11-21T06:28:47.267Z,5.28
2022-11-21T06:31:23.593Z,4.57
2022-11-21T06:33:58.738Z,4.50
2022-11-21T06:36:27.481Z,5.03
2022-11-21T06:38:56.167Z,4.53
2022-11-21T06:41:26.302Z,5.30
2022-11-21T06:43:54.465Z,6.15
2022-11-21T06:46:22.354Z,5.65
2022-11-21T06:48:50.089Z,4.70
2022-11-21T06:51:20.038Z,5.47
2022-11-21T06:53:49.326Z,5.38
2022-11-21T06:56:17.245Z,5.10
2022-11-21T06:58:45.170Z,5.50
2022-11-21T07:01:13.744Z,5.57
2022-11-21T07:03:41.697Z,4.88
2022-11-21T07:06:09.543Z,5.05
2022-11-21T07:08:38.170Z,5.35
2022-11-21T07:11:24.677Z,5.22
2022-11-21T07:13:53.296Z,5.55
2022-11-21T07:16:21.326Z,5.63
2022-11-21T07:18:49.401Z,5.85
2022-11-21T07:21:17.283Z,5.47
2022-11-21T07:23:45.174Z,6.32
2022-11-21T07:26:13.031Z,5.50
2022-11-21T07:28:41.067Z,5.28
2022-11-21T07:31:13.738Z,5.50
2022-11-21T07:33:47.031Z,5.50
2022-11-21T07:36:15.049Z,5.80
2022-11-21T07:38:42.986Z,5.85
2022-11-21T07:41:11.220Z,5.60
2022-11-21T07:43:39.256Z,5.18
2022-11-21T07:46:07.001Z,5.60
2022-11-21T07:48:34.939Z,6.90
2022-11-21T07:51:05.237Z,6.32
2022-11-21T07:53:33.156Z,5.68
2022-11-21T07:56:01.045Z,6.20
2022-11-21T07:58:29.272Z,5.65
2022-11-21T08:00:57.432Z,5.78
2022-11-21T08:03:25.710Z,6.45
2022-11-21T08:05:53.561Z,5.38
2022-11-21T08:08:21.471Z,5.13
2022-11-21T08:10:49.441Z,5.30
2022-11-21T08:13:17.562Z,6.22
2022-11-21T08:15:45.512Z,5.65
2022-11-21T08:18:21.068Z,5.25
2022-11-21T08:20:48.959Z,4.95
2022-11-21T08:23:17.153Z,5.95
2022-11-21T08:25:45.454Z,5.82
2022-11-21T08:28:13.866Z,4.90
2022-11-21T08:30:41.787Z,5.38
2022-11-21T08:33:09.489Z,4.93
2022-11-21T08:35:38.554Z,5.32
2022-11-21T08:38:06.820Z,4.53
2022-11-21T08:40:35.398Z,4.85
2022-11-21T08:43:06.078Z,4.18
2022-11-21T08:45:35.025Z,4.68
2022-11-21T08:48:03.428Z,4.47
2022-11-21T08:50:32.296Z,4.40
2022-11-21T08:53:01.922Z,4.82
2022-11-21T08:55:30.783Z,5.03
2022-11-21T08:57:59.020Z,4.05
2022-11-21T09:00:27.540Z,4.43
2022-11-21T09:02:55.348Z,4.55
2022-11-21T09:05:23.160Z,5.25
2022-11-21T09:07:57.782Z,4.10
2022-11-21T09:10:29.572Z,4.72
2022-11-21T09:13:00.307Z,3.95
2022-11-21T09:15:47.901Z,5.05
2022-11-21T09:18:18.304Z,4.40
2022-11-21T09:20:46.177Z,4.60
2022-11-21T09:23:15.588Z,3.63
2022-11-21T09:25:44.006Z,3.78
2022-11-21T09:28:14.904Z,4.27
2022-11-21T09:30:43.725Z,4.15
2022-11-21T09:33:17.110Z,4.20
2022-11-21T09:35:45.044Z,3.63
2022-11-21T09:38:12.964Z,3.95
2022-11-21T09:40:44.449Z,3.22
2022-11-21T09:43:36.611Z,3.40
2022-11-21T09:46:14.187Z,3.90
2022-11-21T09:49:02.106Z,3.55
2022-11-21T09:51:32.160Z,3.80
2022-11-21T09:54:06.343Z,3.67
2022-11-21T09:56:39.655Z,3.65
2022-11-21T09:59:29.213Z,3.17
2022-11-21T10:01:57.804Z,2.80
2022-11-21T10:04:27.198Z,2.55
2022-11-21T10:06:55.266Z,2.72
2022-11-21T10:09:32.141Z,3.20
2022-11-21T10:12:40.137Z,2.67
2022-11-21T10:15:35.620Z,2.90
2022-11-21T10:18:18.622Z,2.92
2022-11-21T10:20:58.050Z,2.65
2022-11-21T10:23:56.771Z,3.03
2022-11-21T10:26:39.967Z,3.83
2022-11-21T10:29:22.544Z,4.32
2022-11-21T10:31:50.787Z,4.00
2022-11-21T10:34:25.036Z,4.43
2022-11-21T10:36:59.306Z,3.72
2022-11-21T10:39:40.287Z,4.95
2022-11-21T10:45:12.791Z,4.05
2022-11-21T10:47:40.593Z,3.97
2022-11-21T10:50:30.366Z,3.75
2022-11-21T10:53:39.145Z,3.60
2022-11-21T10:56:08.878Z,4.15
2022-11-21T10:58:53.300Z,3.72
2022-11-21T11:01:22.144Z,4.10
2022-11-21T11:04:27.765Z,4.00
2022-11-21T11:06:53.747Z,3.58
2022-11-21T11:09:32.581Z,3.88
2022-11-21T11:12:50.193Z,3.50
2022-11-21T11:15:23.588Z,4.00
2022-11-21T11:18:09.013Z,3.30
2022-11-21T11:20:42.627Z,4.10
2022-11-21T11:23:25.469Z,2.97
2022-11-21T11:26:00.400Z,3.67
2022-11-21T11:28:35.562Z,3.85
2022-11-21T11:31:04.212Z,3.92
2022-11-21T11:33:43.968Z,4.10
2022-11-21T11:36:23.346Z,3.67
2022-11-21T11:38:59.338Z,5.88
2022-11-21T11:42:17.150Z,5.03
2022-11-21T11:45:31.210Z,4.28
2022-11-21T11:48:12.636Z,5.35
2022-11-21T11:50:52.387Z,4.13
2022-11-21T11:53:20.767Z,5.07
2022-11-21T11:56:01.477Z,7.05
2022-11-21T12:01:03.258Z,4.68
2022-11-21T12:03:59.878Z,4.30
2022-11-21T12:09:53.505Z,4.45
2022-11-21T12:12:37.126Z,4.57
2022-11-21T12:15:42.420Z,3.85
2022-11-21T12:18:19.731Z,4.25
2022-11-21T12:21:03.145Z,3.92
2022-11-21T12:23:37.852Z,4.18
2022-11-21T12:26:09.606Z,3.00
2022-11-21T12:28:41.581Z,2.88
2022-11-21T12:31:48.200Z,3.20
2022-11-21T12:34:21.056Z,2.92
2022-11-21T12:36:54.727Z,3.17
2022-11-21T12:39:34.858Z,2.90
2022-11-21T12:42:33.406Z,2.97
2022-11-21T12:45:12.831Z,3.58
2022-11-21T12:48:34.743Z,3.20
2022-11-21T12:51:40.140Z,3.38
2022-11-21T12:54:33.500Z,3.40
2022-11-21T12:57:11.920Z,3.28
2022-11-21T13:00:09.431Z,3.00
2022-11-21T13:02:52.291Z,3.55
2022-11-21T13:05:26.978Z,3.45
2022-11-21T13:08:12.671Z,3.47
2022-11-21T13:11:22.623Z,3.60
2022-11-21T13:13:55.837Z,4.57
2022-11-21T13:16:39.788Z,4.13
2022-11-21T13:20:03.026Z,4.18
2022-11-21T13:22:36.909Z,3.70
2022-11-21T13:25:10.101Z,3.42
2022-11-21T13:27:44.973Z,3.70
2022-11-21T13:30:13.036Z,4.90
2022-11-21T13:32:43.058Z,3.47
2022-11-21T13:35:19.778Z,3.70
2022-11-21T13:37:50.603Z,4.03
2022-11-21T13:40:27.798Z,4.28
2022-11-21T13:43:36.473Z,3.70
2022-11-21T13:46:06.631Z,4.28
2022-11-21T13:48:57.898Z,3.83
2022-11-21T13:54:24.063Z,3.67
2022-11-21T13:57:20.871Z,4.22
2022-11-21T14:00:22.300Z,4.05
2022-11-21T14:03:32.400Z,4.20
2022-11-21T14:06:32.464Z,4.18
2022-11-21T14:09:09.060Z,3.75
2022-11-21T14:11:58.828Z,4.82
2022-11-21T14:14:39.386Z,4.55
2022-11-21T14:17:44.804Z,4.35
2022-11-21T14:20:42.455Z,4.45
2022-11-21T14:23:21.990Z,3.92
2022-11-21T14:25:55.704Z,4.15
2022-11-21T14:28:25.086Z,3.45
2022-11-21T14:31:06.878Z,4.78
2022-11-21T14:33:45.550Z,3.20
2022-11-21T14:36:21.187Z,4.10
2022-11-21T14:39:13.944Z,3.78
2022-11-21T14:41:39.776Z,3.35
2022-11-21T14:44:16.350Z,3.85
2022-11-21T14:46:45.397Z,4.03
2022-11-21T14:49:24.566Z,3.25
2022-11-21T14:52:03.869Z,3.88
2022-11-21T14:55:06.081Z,3.67
2022-11-21T14:57:42.658Z,3.40
2022-11-21T15:00:36.187Z,4.47
2022-11-21T15:03:03.546Z,4.22
2022-11-21T15:11:13.993Z,4.35
2022-11-21T15:14:12.380Z,3.30
2022-11-21T15:16:30.363Z,3.42
2022-11-21T15:18:58.333Z,2.95
2022-11-21T15:21:26.235Z,3.47
2022-11-21T15:23:56.696Z,2.47
2022-11-21T15:26:31.321Z,2.95
2022-11-21T15:29:00.955Z,2.63
2022-11-21T15:31:29.174Z,3.20
2022-11-21T15:34:34.858Z,3.30
2022-11-21T15:37:05.055Z,3.45
2022-11-21T15:39:34.417Z,3.47
2022-11-21T15:42:33.120Z,3.15
2022-11-21T15:45:20.852Z,3.00
2022-11-21T15:47:49.135Z,3.33
2022-11-21T15:50:17.245Z,3.40
2022-11-21T15:52:49.625Z,3.72
2022-11-21T15:55:27.202Z,2.95
2022-11-21T15:57:55.201Z,3.40
2022-11-21T16:00:23.242Z,3.03
2022-11-21T16:02:51.232Z,4.53
2022-11-21T16:05:18.939Z,3.40
2022-11-21T16:07:48.431Z,3.08
2022-11-21T16:10:22.654Z,3.13
2022-11-21T16:12:55.829Z,3.70
2022-11-21T16:15:24.075Z,3.33
2022-11-21T16:17:53.007Z,2.88
2022-11-21T16:20:21.022Z,2.97
2022-11-21T16:22:50.059Z,2.65
2022-11-21T16:25:18.112Z,3.28
2022-11-21T16:27:47.249Z,2.97
2022-11-21T16:30:15.538Z,2.88
2022-11-21T16:32:43.363Z,2.78
2022-11-21T16:35:11.335Z,3.15
2022-11-21T16:37:39.905Z,3.10
2022-11-21T16:40:08.556Z,3.58
2022-11-21T16:42:36.286Z,3.40
2022-11-21T16:45:04.349Z,3.15
2022-11-21T16:47:32.122Z,3.35
2022-11-21T16:49:59.738Z,4.32
2022-11-21T16:52:27.639Z,3.53
2022-11-21T16:54:55.593Z,3.28
2022-11-21T16:57:23.461Z,3.38
2022-11-21T16:59:51.383Z,3.75
2022-11-21T17:02:19.238Z,3.55
2022-11-21T17:04:47.118Z,3.38
2022-11-21T17:07:15.016Z,2.88
2022-11-21T17:09:42.960Z,3.38
2022-11-21T17:12:10.900Z,2.63
2022-11-21T17:14:38.806Z,3.22
2022-11-21T17:17:06.957Z,3.25
2022-11-21T17:19:34.838Z,2.75
2022-11-21T17:22:02.950Z,4.00
2022-11-21T17:24:30.994Z,3.72
2022-11-21T17:27:01.259Z,3.25
2022-11-21T17:29:32.182Z,3.97
2022-11-21T17:32:00.054Z,3.20
2022-11-21T17:34:32.686Z,3.40
2022-11-21T17:37:00.970Z,3.42
2022-11-21T17:39:30.140Z,3.42
2022-11-21T17:42:01.867Z,3.08
2022-11-21T17:44:30.201Z,3.78
2022-11-21T17:46:59.521Z,3.92
2022-11-21T17:49:30.176Z,2.92
2022-11-21T17:51:58.285Z,3.30
2022-11-21T17:54:26.386Z,3.08
2022-11-21T17:56:56.974Z,2.90
2022-11-21T17:59:25.148Z,3.67
2022-11-21T18:01:53.151Z,3.25
2022-11-21T18:04:21.411Z,3.33
2022-11-21T18:06:49.585Z,3.35
2022-11-21T18:09:17.363Z,3.28
2022-11-21T18:11:46.325Z,3.05
2022-11-21T18:14:14.561Z,3.17
2022-11-21T18:16:47.583Z,3.58
2022-11-21T18:19:19.032Z,3.03
2022-11-21T18:21:47.131Z,3.67
2022-11-21T18:24:15.130Z,3.45
2022-11-21T18:26:43.036Z,3.38
2022-11-21T18:31:59.175Z,3.25
2022-11-21T18:34:27.080Z,3.08
2022-11-21T18:36:54.995Z,3.92
2022-11-21T18:39:25.250Z,3.75
2022-11-21T18:41:53.107Z,4.05
2022-11-21T18:44:22.440Z,3.95
2022-11-21T18:46:52.144Z,3.42
2022-11-21T18:49:20.098Z,4.18
2022-11-21T18:51:48.637Z,4.22
2022-11-21T18:54:16.779Z,4.18
2022-11-21T18:56:44.669Z,5.07
2022-11-21T18:59:12.532Z,5.10
2022-11-21T19:01:40.754Z,4.40
2022-11-21T19:04:09.505Z,4.38
2022-11-21T19:06:37.454Z,4.53
2022-11-21T19:09:05.673Z,4.60
2022-11-21T19:11:33.460Z,4.10
2022-11-21T19:14:01.695Z,4.05
2022-11-21T19:16:34.579Z,4.00
2022-11-21T19:19:33.567Z,4.25
2022-11-21T19:21:53.234Z,4.38
2022-11-21T19:24:21.903Z,4.00
2022-11-21T19:26:50.700Z,4.18
2022-11-21T19:29:19.036Z,4.22
2022-11-21T19:31:46.863Z,5.20
2022-11-21T19:34:15.628Z,4.82
2022-11-21T19:36:43.968Z,5.35
2022-11-21T19:39:12.487Z,6.00
2022-11-21T19:41:40.511Z,4.47
2022-11-21T19:44:08.625Z,4.47
2022-11-21T19:46:38.919Z,5.25
2022-11-21T19:49:08.010Z,4.75
2022-11-21T19:51:40.894Z,5.25
2022-11-21T19:54:10.203Z,5.40
2022-11-21T19:56:38.197Z,4.32
2022-11-21T19:59:06.456Z,5.82
2022-11-21T20:01:34.999Z,6.78
2022-11-21T20:04:04.691Z,5.78
2022-11-21T20:06:38.928Z,6.07
2022-11-21T20:09:25.230Z,6.50
2022-11-21T20:11:53.646Z,5.80
2022-11-21T20:14:22.879Z,5.28
2022-11-21T20:16:53.044Z,6.70
2022-11-21T20:19:22.917Z,7.28
2022-11-21T20:21:51.420Z,7.07
2022-11-21T20:24:19.588Z,6.43
2022-11-21T20:26:47.479Z,6.82
2022-11-21T20:29:15.859Z,6.55
2022-11-21T20:31:46.853Z,7.53
2022-11-21T20:34:14.909Z,6.07
2022-11-21T20:36:43.501Z,6.65
2022-11-21T20:39:16.475Z,6.57
2022-11-21T20:41:45.523Z,7.00
2022-11-21T20:47:09.634Z,8.98
2022-11-21T20:49:37.993Z,9.02
2022-11-21T20:54:54.680Z,7.97
2022-11-21T20:57:22.621Z,9.25
2022-11-21T20:59:50.462Z,8.30
2022-11-21T21:02:18.337Z,7.63
2022-11-21T21:04:46.200Z,8.30
2022-11-21T21:07:14.163Z,8.35
2022-11-21T21:09:44.563Z,9.20
2022-11-21T21:12:12.310Z,9.18
2022-11-21T21:14:40.118Z,9.73
2022-11-21T21:17:07.886Z,9.45
2022-11-21T21:19:35.538Z,9.50
2022-11-21T21:22:05.301Z,10.13
2022-11-21T21:24:33.286Z,8.45
2022-11-21T21:27:01.099Z,7.95
2022-11-21T21:29:29.472Z,8.15
2022-11-21T21:31:57.710Z,8.68
2022-11-21T21:34:25.594Z,8.52
2022-11-21T21:36:53.500Z,10.10
2022-11-21T21:39:21.463Z,7.88
2022-11-21T21:41:49.527Z,8.30
2022-11-21T21:44:17.517Z,9.40
2022-11-21T21:46:45.623Z,9.43
2022-11-21T21:49:13.755Z,9.38
2022-11-21T21:51:41.644Z,9.30
2022-11-21T21:54:17.320Z,8.82
2022-11-21T21:56:46.974Z,9.02
2022-11-21T21:59:15.342Z,9.07
2022-11-21T22:01:43.387Z,7.90
2022-11-21T22:04:12.828Z,8.55
2022-11-21T22:06:40.688Z,8.70
2022-11-21T22:09:08.752Z,9.13
2022-11-21T22:11:38.454Z,8.48
2022-11-21T22:14:08.587Z,8.18
2022-11-21T22:16:36.600Z,9.18
2022-11-21T22:19:04.405Z,8.63
2022-11-21T22:21:34.559Z,8.60
2022-11-21T22:24:27.461Z,9.75
2022-11-21T22:26:55.570Z,10.02
2022-11-21T22:29:23.555Z,9.15
2022-11-21T22:31:51.896Z,9.55
2022-11-21T22:34:19.860Z,9.82
2022-11-21T22:36:48.153Z,10.43
2022-11-21T22:39:17.609Z,9.18
2022-11-21T22:41:45.695Z,10.18
2022-11-21T22:44:13.606Z,10.27
2022-11-21T22:46:41.556Z,10.35
2022-11-21T22:49:09.477Z,9.57
2022-11-21T22:51:37.325Z,9.68
2022-11-21T22:54:05.403Z,9.80
2022-11-21T22:56:33.224Z,10.48
2022-11-21T22:59:00.992Z,9.82
2022-11-21T23:01:28.851Z,11.57
2022-11-21T23:03:56.739Z,12.40
2022-11-21T23:06:26.602Z,13.25
2022-11-21T23:08:56.114Z,12.48
2022-11-21T23:11:29.484Z,12.23
2022-11-21T23:13:58.043Z,11.13
2022-11-21T23:16:26.882Z,12.40
2022-11-21T23:18:55.601Z,12.35
2022-11-21T23:21:23.620Z,11.07
2022-11-21T23:23:51.472Z,11.40
2022-11-21T23:26:19.767Z,11.02
2022-11-21T23:28:47.942Z,11.02
2022-11-21T23:31:16.193Z,12.10
2022-11-21T23:33:44.194Z,11.25
2022-11-21T23:36:14.343Z,11.70
2022-11-21T23:38:42.292Z,11.57
2022-11-21T23:41:10.726Z,10.57
2022-11-21T23:43:38.685Z,11.15
2022-11-21T23:46:06.637Z,11.02
2022-11-21T23:48:34.453Z,11.02
2022-11-21T23:51:02.379Z,11.02
2022-11-21T23:53:30.271Z,11.60
2022-11-21T23:55:58.105Z,13.20
2022-11-21T23:58:26.086Z,13.15
